Time;durP1;ratioP1;P1;durP2;ratioP2;P2;SDS_P1;SDS_P2;PMS_P1;PMS_P2;Temp;Humidity;BMP_temperature;BMP_pressure;BME280_temperature;BME280_humidity;BME280_pressure;Samples;Min_cycle;Max_cycle;Signal;HPM_P1;HPM_P2
2022/05/14 00:00:54;;;;;;;29.42;6.47;;;;;;;;;;4947935;28;20147;-65
2022/05/14 00:03:19;;;;;;;25.15;5.85;;;;;;;;;;4945911;28;20122;-65
2022/05/14 00:05:44;;;;;;;24.92;5.70;;;;;;;;;;4947196;28;20023;-65
2022/05/14 00:08:11;;;;;;;22.38;5.60;;;;;;;;;;4946664;28;20063;-65
2022/05/14 00:13:03;;;;;;;20.70;6.07;;;;;;;;;;4944937;28;20034;-66
2022/05/14 00:13:22;;;;;;;23.75;5.88;;;;;;;;;;4942990;28;20031;-65
2022/05/14 00:15:47;;;;;;;30.48;6.43;;;;;;;;;;4946292;28;20115;-66
2022/05/14 00:18:13;;;;;;;30.33;6.55;;;;;;;;;;4946387;28;20019;-65
2022/05/14 00:20:38;;;;;;;27.95;6.55;;;;;;;;;;4943936;28;20113;-65
2022/05/14 00:23:04;;;;;;;25.08;6.45;;;;;;;;;;4946017;28;20188;-65
2022/05/14 00:25:29;;;;;;;24.17;6.65;;;;;;;;;;4946116;28;20030;-66
2022/05/14 00:27:55;;;;;;;17.23;5.63;;;;;;;;;;4943137;28;20019;-65
2022/05/14 00:30:23;;;;;;;30.60;6.85;;;;;;;;;;4945149;28;20077;-65
2022/05/14 00:32:48;;;;;;;23.83;5.93;;;;;;;;;;4946702;28;20358;-65
2022/05/14 00:35:14;;;;;;;26.30;6.47;;;;;;;;;;4944780;28;20056;-66
2022/05/14 00:37:39;;;;;;;25.27;6.50;;;;;;;;;;4946551;28;20026;-66
2022/05/14 00:40:07;;;;;;;22.23;6.63;;;;;;;;;;4947293;28;20061;-65
2022/05/14 00:42:32;;;;;;;23.48;5.88;;;;;;;;;;4942812;28;20027;-65
2022/05/14 00:44:58;;;;;;;18.40;5.85;;;;;;;;;;4945935;28;20083;-64
2022/05/14 00:47:23;;;;;;;21.02;6.28;;;;;;;;;;4946293;28;20106;-64
2022/05/14 00:49:49;;;;;;;21.02;5.97;;;;;;;;;;4946688;28;20043;-65
2022/05/14 00:52:16;;;;;;;24.08;6.50;;;;;;;;;;4947168;28;20035;-65
2022/05/14 00:54:45;;;;;;;26.17;5.93;;;;;;;;;;4946108;28;20051;-65
2022/05/14 00:57:17;;;;;;;31.65;6.80;;;;;;;;;;4943407;28;20412;-66
2022/05/14 00:59:43;;;;;;;22.77;6.80;;;;;;;;;;4929038;29;20051;-65
2022/05/14 01:02:08;;;;;;;23.23;6.47;;;;;;;;;;4947142;28;20091;-68
2022/05/14 01:04:33;;;;;;;30.95;7.85;;;;;;;;;;4942099;29;20499;-65
2022/05/14 01:07:07;;;;;;;25.83;6.63;;;;;;;;;;4945909;28;20750;-65
2022/05/14 01:09:34;;;;;;;25.40;7.03;;;;;;;;;;4944029;28;20023;-66
2022/05/14 01:11:59;;;;;;;21.85;7.25;;;;;;;;;;4940020;28;20031;-66
2022/05/14 01:14:25;;;;;;;31.92;6.40;;;;;;;;;;4925864;28;20020;-65
2022/05/14 01:16:51;;;;;;;24.77;6.70;;;;;;;;;;4944282;28;20043;-65
2022/05/14 01:19:17;;;;;;;23.42;6.68;;;;;;;;;;4945856;28;20019;-64
2022/05/14 01:22:12;;;;;;;23.17;6.53;;;;;;;;;;4948674;28;20026;-65
2022/05/14 01:27:45;;;;;;;27.00;6.20;;;;;;;;;;4948148;29;20087;-65
2022/05/14 01:30:10;;;;;;;26.65;6.30;;;;;;;;;;4944144;28;20127;-66
2022/05/14 01:32:35;;;;;;;22.05;6.22;;;;;;;;;;4949791;28;20411;-67
2022/05/14 01:35:01;;;;;;;25.92;6.97;;;;;;;;;;4949423;28;20035;-65
2022/05/14 01:37:26;;;;;;;25.52;6.18;;;;;;;;;;4947040;28;20031;-66
2022/05/14 01:39:51;;;;;;;23.77;6.57;;;;;;;;;;4949535;29;20031;-66
2022/05/14 01:42:20;;;;;;;17.30;5.43;;;;;;;;;;4948631;28;20242;-66
2022/05/14 01:44:45;;;;;;;18.60;5.57;;;;;;;;;;4946717;28;20024;-64
2022/05/14 01:47:11;;;;;;;25.38;5.88;;;;;;;;;;4949391;29;20162;-65
2022/05/14 01:49:37;;;;;;;25.23;7.47;;;;;;;;;;4947877;28;20042;-66
2022/05/14 01:52:02;;;;;;;21.38;5.88;;;;;;;;;;4949208;28;20039;-66
2022/05/14 01:54:28;;;;;;;23.60;6.10;;;;;;;;;;4948764;28;20031;-66
2022/05/14 01:56:53;;;;;;;23.52;5.53;;;;;;;;;;4950636;28;20493;-64
2022/05/14 01:59:19;;;;;;;22.25;6.07;;;;;;;;;;4927281;29;20344;-66
2022/05/14 02:01:44;;;;;;;19.77;6.15;;;;;;;;;;4948474;28;20449;-66
2022/05/14 02:04:11;;;;;;;23.75;6.35;;;;;;;;;;4946813;28;20147;-66
2022/05/14 02:06:37;;;;;;;22.27;6.10;;;;;;;;;;4948558;28;20035;-66
2022/05/14 02:09:03;;;;;;;24.25;6.10;;;;;;;;;;4948849;28;20038;-65
2022/05/14 02:11:29;;;;;;;28.67;7.05;;;;;;;;;;4946629;28;20078;-65
2022/05/14 02:13:55;;;;;;;26.17;5.70;;;;;;;;;;4945648;28;20027;-66
2022/05/14 02:16:21;;;;;;;21.50;6.25;;;;;;;;;;4948988;28;20031;-66
2022/05/14 02:18:47;;;;;;;27.98;6.90;;;;;;;;;;4946436;29;20114;-65
2022/05/14 02:21:12;;;;;;;31.63;6.65;;;;;;;;;;4949593;28;20495;-65
2022/05/14 02:23:38;;;;;;;20.65;6.10;;;;;;;;;;4948312;28;20030;-65
2022/05/14 02:26:04;;;;;;;28.42;7.15;;;;;;;;;;4949157;28;20023;-64
2022/05/14 02:28:29;;;;;;;23.70;6.88;;;;;;;;;;4946866;28;20024;-64
2022/05/14 02:30:55;;;;;;;25.17;7.00;;;;;;;;;;4944932;28;20031;-65
2022/05/14 02:33:20;;;;;;;20.63;6.65;;;;;;;;;;4949511;28;20041;-65
2022/05/14 02:35:45;;;;;;;30.23;6.53;;;;;;;;;;4945724;28;20106;-65
2022/05/14 02:38:11;;;;;;;23.45;6.43;;;;;;;;;;4949979;28;20042;-66
2022/05/14 02:40:36;;;;;;;23.05;6.43;;;;;;;;;;4962699;28;20047;-66
2022/05/14 02:43:01;;;;;;;24.50;6.13;;;;;;;;;;4945419;28;20670;-67
2022/05/14 02:45:27;;;;;;;22.40;6.40;;;;;;;;;;4947303;28;20491;-65
2022/05/14 02:47:52;;;;;;;27.48;6.35;;;;;;;;;;4946602;28;20019;-65
2022/05/14 02:50:18;;;;;;;20.42;6.25;;;;;;;;;;4945654;28;20473;-66
2022/05/14 02:52:44;;;;;;;21.02;6.78;;;;;;;;;;4947004;28;20548;-66
2022/05/14 02:55:09;;;;;;;20.08;6.65;;;;;;;;;;4946935;28;20035;-65
2022/05/14 02:57:35;;;;;;;27.25;6.68;;;;;;;;;;4947081;28;20027;-65
2022/05/14 03:00:00;;;;;;;21.73;5.85;;;;;;;;;;4946827;28;20030;-67
2022/05/14 03:02:29;;;;;;;25.88;6.25;;;;;;;;;;4960986;28;20475;-65
2022/05/14 03:04:54;;;;;;;27.58;6.90;;;;;;;;;;4945898;28;20019;-66
2022/05/14 03:07:19;;;;;;;20.27;6.30;;;;;;;;;;4964077;28;20038;-66
2022/05/14 03:09:45;;;;;;;21.77;5.88;;;;;;;;;;4946845;28;20208;-67
2022/05/14 03:12:12;;;;;;;24.02;6.50;;;;;;;;;;4946489;28;20031;-66
2022/05/14 03:14:38;;;;;;;19.80;6.20;;;;;;;;;;4943318;28;20037;-66
2022/05/14 03:17:04;;;;;;;16.27;6.00;;;;;;;;;;4948175;28;20023;-65
2022/05/14 03:19:29;;;;;;;18.50;5.32;;;;;;;;;;4943663;28;20085;-65
2022/05/14 03:21:54;;;;;;;18.13;6.03;;;;;;;;;;4947084;29;20498;-66
2022/05/14 03:24:20;;;;;;;23.20;6.10;;;;;;;;;;4961611;28;20023;-65
2022/05/14 03:26:45;;;;;;;21.77;6.47;;;;;;;;;;4944945;28;20027;-65
2022/05/14 03:29:10;;;;;;;15.05;5.35;;;;;;;;;;4945118;28;20030;-66
2022/05/14 03:31:36;;;;;;;26.95;7.25;;;;;;;;;;4945203;28;20095;-66
2022/05/14 03:34:03;;;;;;;20.27;6.05;;;;;;;;;;4946522;28;20118;-67
2022/05/14 03:36:29;;;;;;;22.38;6.18;;;;;;;;;;4945467;28;20434;-65
2022/05/14 03:38:54;;;;;;;22.88;6.90;;;;;;;;;;4945129;28;20178;-66
2022/05/14 03:41:20;;;;;;;21.30;5.72;;;;;;;;;;4946304;28;20409;-66
2022/05/14 03:43:46;;;;;;;22.60;6.72;;;;;;;;;;4943675;28;20081;-67
2022/05/14 03:46:11;;;;;;;19.98;6.88;;;;;;;;;;4948288;28;20119;-66
2022/05/14 03:48:37;;;;;;;21.48;6.13;;;;;;;;;;4947338;28;20117;-66
2022/05/14 03:51:03;;;;;;;19.80;7.07;;;;;;;;;;4945261;28;20135;-66
2022/05/14 03:53:29;;;;;;;21.92;6.90;;;;;;;;;;4946603;28;20054;-66
2022/05/14 03:55:55;;;;;;;25.42;7.03;;;;;;;;;;4945215;28;20035;-65
2022/05/14 03:58:20;;;;;;;18.38;5.95;;;;;;;;;;4945561;28;20078;-66
2022/05/14 04:00:45;;;;;;;19.10;6.30;;;;;;;;;;4959415;28;20027;-65
2022/05/14 04:03:10;;;;;;;18.67;5.70;;;;;;;;;;4949899;28;20026;-66
2022/05/14 04:05:35;;;;;;;27.02;7.63;;;;;;;;;;4946268;28;20028;-66
2022/05/14 04:08:01;;;;;;;19.58;6.47;;;;;;;;;;4947982;28;20380;-67
2022/05/14 04:10:26;;;;;;;21.25;7.15;;;;;;;;;;4946341;28;20023;-67
2022/05/14 04:12:51;;;;;;;22.73;7.45;;;;;;;;;;4943656;28;20034;-67
2022/05/14 04:15:16;;;;;;;27.92;6.80;;;;;;;;;;4946023;28;20489;-65
2022/05/14 04:17:42;;;;;;;20.75;5.95;;;;;;;;;;4943346;28;20031;-66
2022/05/14 04:20:07;;;;;;;25.00;7.25;;;;;;;;;;4943713;28;20031;-66
2022/05/14 04:22:51;;;;;;;19.60;7.15;;;;;;;;;;4946614;28;20114;-66
2022/05/14 04:25:17;;;;;;;24.95;6.85;;;;;;;;;;4946028;28;20019;-66
2022/05/14 04:27:46;;;;;;;19.40;6.75;;;;;;;;;;4944116;28;20027;-67
2022/05/14 04:30:13;;;;;;;24.45;7.68;;;;;;;;;;4945398;28;20031;-67
2022/05/14 04:32:39;;;;;;;21.67;7.28;;;;;;;;;;4946049;28;20042;-66
2022/05/14 04:35:05;;;;;;;22.73;7.03;;;;;;;;;;4944682;28;20188;-66
2022/05/14 04:37:30;;;;;;;21.83;7.07;;;;;;;;;;4945537;28;20046;-66
2022/05/14 04:39:55;;;;;;;18.63;6.80;;;;;;;;;;4944793;28;20454;-66
2022/05/14 04:42:20;;;;;;;19.15;6.18;;;;;;;;;;4944094;28;20739;-66
2022/05/14 04:44:46;;;;;;;24.63;8.13;;;;;;;;;;4944587;28;20390;-66
2022/05/14 04:47:12;;;;;;;17.55;6.13;;;;;;;;;;4946816;28;20118;-65
2022/05/14 04:49:40;;;;;;;23.70;7.13;;;;;;;;;;4944023;28;20482;-66
2022/05/14 04:52:06;;;;;;;21.77;6.95;;;;;;;;;;4943110;28;20019;-66
2022/05/14 04:54:32;;;;;;;22.13;6.88;;;;;;;;;;4948792;28;20078;-66
2022/05/14 04:56:57;;;;;;;17.30;6.35;;;;;;;;;;4948636;28;20023;-67
2022/05/14 04:59:23;;;;;;;19.02;6.60;;;;;;;;;;4929426;29;20402;-66
2022/05/14 05:04:32;;;;;;;26.27;7.15;;;;;;;;;;4952336;28;20054;-66
2022/05/14 05:06:58;;;;;;;25.05;7.03;;;;;;;;;;4951669;28;20027;-65
2022/05/14 05:09:23;;;;;;;19.75;6.55;;;;;;;;;;4948583;28;20027;-66
2022/05/14 05:11:50;;;;;;;26.77;7.93;;;;;;;;;;4953603;28;20066;-67
2022/05/14 05:14:15;;;;;;;18.98;6.65;;;;;;;;;;4945940;29;20030;-65
2022/05/14 05:16:41;;;;;;;15.55;6.18;;;;;;;;;;4948249;28;20588;-66
2022/05/14 05:19:06;;;;;;;19.00;6.63;;;;;;;;;;4949017;28;20111;-65
2022/05/14 05:21:31;;;;;;;22.17;7.35;;;;;;;;;;4949060;29;20121;-66
2022/05/14 05:23:56;;;;;;;20.20;6.10;;;;;;;;;;4947665;28;20050;-66
2022/05/14 05:26:22;;;;;;;21.13;7.18;;;;;;;;;;4948380;29;20133;-65
2022/05/14 05:28:47;;;;;;;17.58;7.32;;;;;;;;;;4944114;29;20111;-66
2022/05/14 05:31:12;;;;;;;20.67;7.10;;;;;;;;;;4949133;28;20113;-65
2022/05/14 05:33:39;;;;;;;14.68;5.78;;;;;;;;;;4948309;28;20039;-66
2022/05/14 05:36:06;;;;;;;22.15;5.88;;;;;;;;;;4932064;29;20194;-66
2022/05/14 05:38:31;;;;;;;17.67;6.07;;;;;;;;;;4949280;28;20078;-65
2022/05/14 05:40:57;;;;;;;15.02;6.10;;;;;;;;;;4949638;28;20556;-65
2022/05/14 05:43:22;;;;;;;17.95;6.30;;;;;;;;;;4946552;28;20023;-67
2022/05/14 05:45:49;;;;;;;22.58;6.75;;;;;;;;;;4946765;28;20103;-67
2022/05/14 05:48:14;;;;;;;24.15;7.43;;;;;;;;;;4948413;28;20019;-66
2022/05/14 05:50:40;;;;;;;19.88;6.28;;;;;;;;;;4946671;28;20027;-66
2022/05/14 05:53:06;;;;;;;19.02;6.78;;;;;;;;;;4948659;28;20063;-67
2022/05/14 05:58:19;;;;;;;16.85;6.53;;;;;;;;;;4947762;28;20026;-66
2022/05/14 06:00:45;;;;;;;20.83;5.95;;;;;;;;;;4948752;28;20039;-64
2022/05/14 06:03:10;;;;;;;21.83;7.05;;;;;;;;;;4949343;28;20011;-66
2022/05/14 06:05:35;;;;;;;19.67;6.20;;;;;;;;;;4949006;28;20051;-66
2022/05/14 06:08:05;;;;;;;19.13;7.05;;;;;;;;;;4949001;28;20086;-66
2022/05/14 06:10:30;;;;;;;19.10;6.68;;;;;;;;;;4948880;28;20027;-66
2022/05/14 06:12:58;;;;;;;18.60;6.22;;;;;;;;;;4943867;28;20031;-65
2022/05/14 06:15:24;;;;;;;21.70;6.38;;;;;;;;;;4949435;28;20047;-65
2022/05/14 06:17:49;;;;;;;22.98;6.35;;;;;;;;;;4948981;28;20065;-66
2022/05/14 06:20:15;;;;;;;16.70;6.15;;;;;;;;;;4947572;28;20035;-65
2022/05/14 06:22:50;;;;;;;22.88;7.20;;;;;;;;;;4949218;28;20533;-67
2022/05/14 06:25:15;;;;;;;13.48;5.90;;;;;;;;;;4947820;28;20039;-65
2022/05/14 06:27:50;;;;;;;16.88;5.68;;;;;;;;;;4947647;28;20043;-66
2022/05/14 06:30:15;;;;;;;18.85;6.38;;;;;;;;;;4947594;28;20023;-65
2022/05/14 06:32:41;;;;;;;21.45;6.70;;;;;;;;;;4948545;28;20030;-66
2022/05/14 06:35:08;;;;;;;23.35;6.47;;;;;;;;;;4946869;28;20069;-66
2022/05/14 06:37:33;;;;;;;16.25;6.78;;;;;;;;;;4948014;28;20023;-66
2022/05/14 06:39:58;;;;;;;19.10;6.32;;;;;;;;;;4947610;28;20487;-66
2022/05/14 06:42:24;;;;;;;19.92;6.40;;;;;;;;;;4947505;28;20406;-66
2022/05/14 06:44:49;;;;;;;16.30;6.00;;;;;;;;;;4946483;29;20471;-65
2022/05/14 06:47:14;;;;;;;14.60;6.07;;;;;;;;;;4947278;28;20028;-65
2022/05/14 06:49:39;;;;;;;15.55;6.22;;;;;;;;;;4945566;29;20783;-65
2022/05/14 06:52:05;;;;;;;23.35;6.15;;;;;;;;;;4947269;28;20035;-66
2022/05/14 06:54:31;;;;;;;17.63;5.93;;;;;;;;;;4948669;28;20043;-66
2022/05/14 06:57:06;;;;;;;15.25;5.95;;;;;;;;;;4948108;28;20023;-66
2022/05/14 06:59:32;;;;;;;22.80;6.50;;;;;;;;;;4945327;28;20030;-65
2022/05/14 07:01:57;;;;;;;21.58;6.97;;;;;;;;;;4945839;28;20039;-65
2022/05/14 07:07:06;;;;;;;18.75;5.90;;;;;;;;;;4947782;29;20458;-65
2022/05/14 07:09:32;;;;;;;13.57;6.60;;;;;;;;;;4946937;28;20427;-66
2022/05/14 07:12:00;;;;;;;16.27;5.68;;;;;;;;;;4946280;28;20090;-65
2022/05/14 07:14:26;;;;;;;19.35;7.55;;;;;;;;;;4944368;28;20019;-66
2022/05/14 07:16:53;;;;;;;15.10;5.80;;;;;;;;;;4944696;28;20430;-65
2022/05/14 07:19:18;;;;;;;21.95;6.25;;;;;;;;;;4946306;28;20162;-66
2022/05/14 07:21:45;;;;;;;14.57;5.78;;;;;;;;;;4946743;28;20121;-66
2022/05/14 07:24:12;;;;;;;17.05;6.32;;;;;;;;;;4946042;28;20019;-66
2022/05/14 07:26:39;;;;;;;19.13;6.40;;;;;;;;;;4945556;28;20016;-65
2022/05/14 07:29:06;;;;;;;21.13;5.90;;;;;;;;;;4944029;28;20114;-65
2022/05/14 07:31:32;;;;;;;15.88;5.68;;;;;;;;;;4947891;28;20027;-65
2022/05/14 07:33:58;;;;;;;13.27;5.63;;;;;;;;;;4945121;28;20351;-66
2022/05/14 07:36:24;;;;;;;17.13;6.38;;;;;;;;;;4947072;28;20409;-65
2022/05/14 07:38:54;;;;;;;13.65;5.45;;;;;;;;;;4946455;28;20541;-66
2022/05/14 07:41:19;;;;;;;16.08;5.45;;;;;;;;;;4962454;28;20035;-66
2022/05/14 07:43:47;;;;;;;13.73;5.13;;;;;;;;;;4960046;28;20046;-66
2022/05/14 07:46:15;;;;;;;16.75;6.13;;;;;;;;;;4944701;29;20023;-65
2022/05/14 07:48:42;;;;;;;16.90;5.93;;;;;;;;;;4945756;28;20027;-65
2022/05/14 07:51:08;;;;;;;18.15;5.78;;;;;;;;;;4944592;28;20063;-67
2022/05/14 07:53:34;;;;;;;12.30;5.22;;;;;;;;;;4947390;28;20433;-64
2022/05/14 07:56:00;;;;;;;13.07;5.43;;;;;;;;;;4945335;28;20190;-66
2022/05/14 07:58:26;;;;;;;17.08;5.68;;;;;;;;;;4944380;28;20098;-66
2022/05/14 08:00:51;;;;;;;17.17;5.13;;;;;;;;;;4946191;28;20027;-66
2022/05/14 08:03:17;;;;;;;18.02;6.05;;;;;;;;;;4948108;28;20454;-66
2022/05/14 08:05:42;;;;;;;17.88;5.72;;;;;;;;;;4945675;28;20502;-66
2022/05/14 08:08:08;;;;;;;16.25;5.20;;;;;;;;;;4947163;28;20715;-66
2022/05/14 08:10:34;;;;;;;18.77;5.18;;;;;;;;;;4945975;28;20039;-66
2022/05/14 08:12:59;;;;;;;18.42;5.57;;;;;;;;;;4957467;28;20249;-66
2022/05/14 08:15:25;;;;;;;16.88;5.45;;;;;;;;;;4961740;28;20031;-68
2022/05/14 08:17:51;;;;;;;21.38;6.82;;;;;;;;;;4947952;28;20074;-67
2022/05/14 08:20:17;;;;;;;14.63;5.60;;;;;;;;;;4943632;29;20048;-68
2022/05/14 08:25:27;;;;;;;17.95;5.68;;;;;;;;;;4947301;29;20038;-68
2022/05/14 08:27:53;;;;;;;21.25;6.07;;;;;;;;;;4942456;28;20019;-68
2022/05/14 08:30:20;;;;;;;14.10;5.00;;;;;;;;;;4944308;28;20143;-67
2022/05/14 08:32:45;;;;;;;19.83;5.88;;;;;;;;;;4944442;28;20395;-68
2022/05/14 08:35:12;;;;;;;18.50;6.47;;;;;;;;;;4944040;28;20019;-66
2022/05/14 08:37:37;;;;;;;17.48;5.75;;;;;;;;;;4946203;28;20128;-66
2022/05/14 08:40:06;;;;;;;17.13;5.40;;;;;;;;;;4945802;28;20486;-66
2022/05/14 08:42:32;;;;;;;14.50;4.85;;;;;;;;;;4945163;28;20035;-66
2022/05/14 08:44:58;;;;;;;16.17;5.25;;;;;;;;;;4942746;28;20031;-66
2022/05/14 08:47:26;;;;;;;19.08;4.75;;;;;;;;;;4929347;29;20031;-66
2022/05/14 08:49:57;;;;;;;16.63;5.45;;;;;;;;;;4946179;28;20045;-65
2022/05/14 08:52:24;;;;;;;16.20;4.93;;;;;;;;;;4944749;28;20361;-66
2022/05/14 08:54:52;;;;;;;14.77;5.15;;;;;;;;;;4947529;28;20044;-65
2022/05/14 08:57:27;;;;;;;18.33;5.20;;;;;;;;;;4960174;28;20517;-65
2022/05/14 08:59:55;;;;;;;15.07;5.30;;;;;;;;;;4960918;28;20485;-64
2022/05/14 09:02:35;;;;;;;14.20;4.88;;;;;;;;;;4944993;28;20859;-66
2022/05/14 09:05:12;;;;;;;13.63;4.97;;;;;;;;;;4958455;28;20509;-65
2022/05/14 09:07:38;;;;;;;16.95;5.13;;;;;;;;;;4945649;28;20400;-65
2022/05/14 09:10:24;;;;;;;17.27;5.47;;;;;;;;;;4944028;28;20023;-65
2022/05/14 09:12:54;;;;;;;16.30;5.63;;;;;;;;;;4939851;28;20035;-65
2022/05/14 09:15:20;;;;;;;18.90;5.07;;;;;;;;;;4949281;28;20031;-65
2022/05/14 09:17:46;;;;;;;16.08;5.40;;;;;;;;;;4949654;28;20688;-66
2022/05/14 09:20:21;;;;;;;17.05;5.10;;;;;;;;;;4942485;29;20039;-66
2022/05/14 09:22:52;;;;;;;16.80;5.43;;;;;;;;;;4946204;28;20019;-65
2022/05/14 09:25:20;;;;;;;14.70;5.40;;;;;;;;;;4944118;28;20529;-66
2022/05/14 09:28:00;;;;;;;16.00;4.93;;;;;;;;;;4943186;28;20019;-66
2022/05/14 09:30:27;;;;;;;15.27;5.10;;;;;;;;;;4941435;28;20030;-65
2022/05/14 09:32:53;;;;;;;14.13;4.90;;;;;;;;;;4945545;28;20031;-65
2022/05/14 09:35:20;;;;;;;13.95;4.65;;;;;;;;;;4964088;28;20023;-65
2022/05/14 09:37:45;;;;;;;16.05;5.05;;;;;;;;;;4950441;28;20023;-66
2022/05/14 09:40:13;;;;;;;18.27;5.38;;;;;;;;;;4947006;28;20428;-65
2022/05/14 09:42:38;;;;;;;15.85;5.07;;;;;;;;;;4947090;28;20027;-67
2022/05/14 09:45:24;;;;;;;22.43;5.30;;;;;;;;;;4945145;28;20031;-65
2022/05/14 09:47:50;;;;;;;11.35;4.45;;;;;;;;;;4947219;29;20261;-66
2022/05/14 09:50:18;;;;;;;16.85;5.10;;;;;;;;;;4943648;28;20035;-66
2022/05/14 09:52:53;;;;;;;14.35;5.25;;;;;;;;;;4948624;28;20087;-66
2022/05/14 09:55:18;;;;;;;14.63;5.00;;;;;;;;;;4947874;28;20483;-65
2022/05/14 09:57:54;;;;;;;15.57;5.25;;;;;;;;;;4947448;28;20053;-65
2022/05/14 10:00:33;;;;;;;18.92;5.07;;;;;;;;;;4949918;28;20246;-66
2022/05/14 10:03:06;;;;;;;16.85;5.25;;;;;;;;;;4950871;28;20015;-65
2022/05/14 10:05:51;;;;;;;15.27;5.57;;;;;;;;;;4947318;28;20046;-66
2022/05/14 10:08:39;;;;;;;12.50;4.50;;;;;;;;;;4947105;28;20058;-65
2022/05/14 10:11:17;;;;;;;16.75;5.57;;;;;;;;;;4961341;28;20557;-65
2022/05/14 10:13:54;;;;;;;16.27;5.00;;;;;;;;;;4945275;28;20019;-64
2022/05/14 10:16:38;;;;;;;16.75;5.63;;;;;;;;;;4947235;28;20113;-64
2022/05/14 10:19:21;;;;;;;16.08;5.53;;;;;;;;;;4946519;28;20035;-65
2022/05/14 10:22:05;;;;;;;16.52;4.80;;;;;;;;;;4948025;28;20019;-66
2022/05/14 10:27:29;;;;;;;19.00;5.53;;;;;;;;;;4947085;29;20038;-67
2022/05/14 10:30:20;;;;;;;16.95;5.20;;;;;;;;;;4946715;28;20015;-66
2022/05/14 10:32:47;;;;;;;16.90;5.22;;;;;;;;;;4946517;29;20031;-65
2022/05/14 10:35:21;;;;;;;14.35;4.68;;;;;;;;;;4944100;28;20109;-65
2022/05/14 10:37:58;;;;;;;14.77;5.03;;;;;;;;;;4945521;28;20015;-66
2022/05/14 10:40:31;;;;;;;18.55;5.30;;;;;;;;;;4943002;28;20186;-66
2022/05/14 10:43:16;;;;;;;16.02;5.18;;;;;;;;;;4942694;28;20011;-67
2022/05/14 10:45:45;;;;;;;14.32;4.45;;;;;;;;;;4948599;28;20081;-66
2022/05/14 10:48:13;;;;;;;15.52;5.07;;;;;;;;;;4946368;28;20023;-67
2022/05/14 10:50:39;;;;;;;15.77;5.63;;;;;;;;;;4945272;28;20027;-68
2022/05/14 10:53:08;;;;;;;19.42;5.40;;;;;;;;;;4962623;28;20137;-68
2022/05/14 10:55:35;;;;;;;21.73;5.65;;;;;;;;;;4947128;28;20042;-69
2022/05/14 10:58:03;;;;;;;17.48;5.68;;;;;;;;;;4943556;28;20274;-70
2022/05/14 11:00:28;;;;;;;16.02;5.10;;;;;;;;;;4947030;28;20162;-69
2022/05/14 11:03:02;;;;;;;15.32;4.80;;;;;;;;;;4948035;28;20098;-69
2022/05/14 11:05:29;;;;;;;15.38;4.90;;;;;;;;;;4943422;28;20145;-71
2022/05/14 11:08:05;;;;;;;17.65;4.68;;;;;;;;;;4947938;28;20379;-69
2022/05/14 11:10:33;;;;;;;11.45;4.45;;;;;;;;;;4948076;28;20054;-68
2022/05/14 11:13:28;;;;;;;17.10;5.32;;;;;;;;;;4941660;28;20031;-69
2022/05/14 11:16:00;;;;;;;18.15;4.57;;;;;;;;;;4939227;28;20251;-68
2022/05/14 11:18:27;;;;;;;16.88;4.35;;;;;;;;;;4948191;28;20023;-68
2022/05/14 11:20:59;;;;;;;13.98;5.32;;;;;;;;;;4929175;29;20118;-67
2022/05/14 11:23:25;;;;;;;14.25;3.88;;;;;;;;;;4946580;29;20474;-68
2022/05/14 11:26:07;;;;;;;15.60;4.10;;;;;;;;;;4947867;28;20398;-68
2022/05/14 11:28:32;;;;;;;14.63;5.03;;;;;;;;;;4941644;28;20454;-67
2022/05/14 11:31:16;;;;;;;13.23;4.55;;;;;;;;;;4946559;29;20058;-69
2022/05/14 11:33:43;;;;;;;16.02;4.80;;;;;;;;;;4946065;28;20035;-67
2022/05/14 11:36:12;;;;;;;13.35;4.88;;;;;;;;;;4944455;28;20109;-70
2022/05/14 11:38:39;;;;;;;15.13;5.43;;;;;;;;;;4945044;28;20031;-68
2022/05/14 11:41:09;;;;;;;14.25;4.32;;;;;;;;;;4946947;28;20768;-70
2022/05/14 11:43:37;;;;;;;13.90;4.22;;;;;;;;;;4940556;28;20086;-67
2022/05/14 11:46:08;;;;;;;11.20;4.10;;;;;;;;;;4945251;28;20031;-69
2022/05/14 11:48:54;;;;;;;13.35;4.18;;;;;;;;;;4945930;28;20023;-68
2022/05/14 11:51:42;;;;;;;15.98;4.50;;;;;;;;;;4943122;28;20130;-68
2022/05/14 11:54:09;;;;;;;15.35;4.07;;;;;;;;;;4941457;28;20054;-68
2022/05/14 11:56:46;;;;;;;14.75;4.28;;;;;;;;;;4944616;29;20201;-67
2022/05/14 11:59:15;;;;;;;12.10;4.10;;;;;;;;;;4940471;28;20039;-67
2022/05/14 12:01:43;;;;;;;13.40;4.15;;;;;;;;;;4944863;28;20130;-67
2022/05/14 12:04:12;;;;;;;12.65;4.07;;;;;;;;;;4939820;28;20042;-68
2022/05/14 12:06:41;;;;;;;13.35;4.70;;;;;;;;;;4945433;28;20023;-69
2022/05/14 12:09:12;;;;;;;15.45;4.32;;;;;;;;;;4948105;28;20020;-68
2022/05/14 12:11:42;;;;;;;14.02;4.28;;;;;;;;;;4944522;28;20030;-70
2022/05/14 12:14:10;;;;;;;13.15;4.97;;;;;;;;;;4940718;28;20023;-67
2022/05/14 12:16:37;;;;;;;11.75;4.10;;;;;;;;;;4944316;28;20387;-68
2022/05/14 12:19:05;;;;;;;11.77;4.00;;;;;;;;;;4942060;28;20042;-68
2022/05/14 12:21:31;;;;;;;15.63;4.50;;;;;;;;;;4944209;28;20482;-68
2022/05/14 12:23:56;;;;;;;13.20;4.97;;;;;;;;;;4943322;28;20019;-69
2022/05/14 12:26:24;;;;;;;16.67;4.40;;;;;;;;;;4945407;28;20093;-67
2022/05/14 12:28:49;;;;;;;12.13;4.03;;;;;;;;;;4941484;28;20031;-68
2022/05/14 12:34:04;;;;;;;10.10;3.75;;;;;;;;;;4944009;29;20058;-68
2022/05/14 12:36:34;;;;;;;9.82;3.40;;;;;;;;;;4946093;28;20423;-68
2022/05/14 12:39:03;;;;;;;9.77;3.80;;;;;;;;;;4947082;28;20035;-68
2022/05/14 12:41:31;;;;;;;14.98;4.38;;;;;;;;;;4961246;28;20078;-69
2022/05/14 12:43:58;;;;;;;14.07;4.47;;;;;;;;;;4939801;28;20023;-69
2022/05/14 12:46:23;;;;;;;16.98;4.60;;;;;;;;;;4945427;28;20114;-67
2022/05/14 12:48:50;;;;;;;15.48;4.90;;;;;;;;;;4941273;28;20106;-68
2022/05/14 12:51:20;;;;;;;13.80;4.43;;;;;;;;;;4946322;28;20126;-67
2022/05/14 12:53:45;;;;;;;13.65;4.90;;;;;;;;;;4945510;28;20043;-69
2022/05/14 12:56:10;;;;;;;13.82;4.40;;;;;;;;;;4948692;28;20359;-67
2022/05/14 12:58:37;;;;;;;15.75;5.50;;;;;;;;;;4941837;28;20559;-68
2022/05/14 13:01:06;;;;;;;12.73;4.20;;;;;;;;;;4945672;28;20028;-68
2022/05/14 13:03:31;;;;;;;11.15;4.20;;;;;;;;;;4943345;28;20027;-68
2022/05/14 13:06:02;;;;;;;13.00;3.90;;;;;;;;;;4941386;28;20023;-69
2022/05/14 13:08:27;;;;;;;17.48;5.00;;;;;;;;;;4944732;28;20103;-69
2022/05/14 13:10:55;;;;;;;11.40;3.95;;;;;;;;;;4944931;28;20289;-69
2022/05/14 13:13:31;;;;;;;11.27;4.20;;;;;;;;;;4939536;28;20496;-68
2022/05/14 13:15:56;;;;;;;16.30;4.80;;;;;;;;;;4949671;28;20454;-67
2022/05/14 13:18:27;;;;;;;14.13;4.90;;;;;;;;;;4947433;28;20031;-68
2022/05/14 13:21:16;;;;;;;14.38;4.47;;;;;;;;;;4946418;28;20015;-68
2022/05/14 13:23:51;;;;;;;12.60;3.95;;;;;;;;;;4940197;28;20781;-68
2022/05/14 13:26:42;;;;;;;14.65;4.95;;;;;;;;;;4949080;28;20023;-68
2022/05/14 13:29:13;;;;;;;13.85;4.57;;;;;;;;;;4942149;29;20086;-68
2022/05/14 13:31:38;;;;;;;13.40;4.55;;;;;;;;;;4948532;28;20211;-69
2022/05/14 13:37:08;;;;;;;12.82;4.30;;;;;;;;;;4951413;29;20083;-68
2022/05/14 13:39:37;;;;;;;13.63;4.15;;;;;;;;;;4950184;28;20034;-69
2022/05/14 13:42:03;;;;;;;15.73;4.35;;;;;;;;;;4947576;29;20027;-68
2022/05/14 13:44:29;;;;;;;15.50;5.03;;;;;;;;;;4941700;28;20034;-71
2022/05/14 13:46:56;;;;;;;16.05;4.53;;;;;;;;;;4949969;28;20031;-68
2022/05/14 13:49:27;;;;;;;13.55;4.40;;;;;;;;;;4945546;28;20106;-68
2022/05/14 13:51:53;;;;;;;16.08;4.47;;;;;;;;;;4947969;28;20035;-68
2022/05/14 13:54:31;;;;;;;16.50;5.40;;;;;;;;;;4948286;28;20070;-68
2022/05/14 13:57:11;;;;;;;16.23;5.32;;;;;;;;;;4947295;28;20023;-68
2022/05/14 13:59:37;;;;;;;11.95;4.68;;;;;;;;;;4945788;28;20019;-68
2022/05/14 14:02:12;;;;;;;11.95;4.35;;;;;;;;;;4944525;29;20038;-69
2022/05/14 14:04:39;;;;;;;17.10;5.43;;;;;;;;;;4941461;28;20617;-68
2022/05/14 14:07:06;;;;;;;13.82;4.82;;;;;;;;;;4948184;28;20122;-68
2022/05/14 14:09:32;;;;;;;15.30;5.18;;;;;;;;;;4947606;28;20038;-69
2022/05/14 14:11:58;;;;;;;15.93;4.63;;;;;;;;;;4948619;28;20027;-68
2022/05/14 14:14:24;;;;;;;11.13;4.40;;;;;;;;;;4940520;28;20126;-68
2022/05/14 14:16:50;;;;;;;12.15;4.93;;;;;;;;;;4946507;28;20113;-68
2022/05/14 14:19:16;;;;;;;16.52;4.22;;;;;;;;;;4946158;28;20027;-69
2022/05/14 14:21:41;;;;;;;12.68;4.35;;;;;;;;;;4945912;28;20098;-67
2022/05/14 14:24:09;;;;;;;12.60;4.28;;;;;;;;;;4962028;28;20027;-68
2022/05/14 14:26:35;;;;;;;16.08;4.00;;;;;;;;;;4947167;28;20046;-68
2022/05/14 14:29:01;;;;;;;15.88;4.75;;;;;;;;;;4942774;28;20106;-68
2022/05/14 14:31:27;;;;;;;15.23;4.88;;;;;;;;;;4947520;28;20023;-68
2022/05/14 14:33:52;;;;;;;13.80;4.55;;;;;;;;;;4942756;28;20481;-68
2022/05/14 14:36:17;;;;;;;16.45;4.60;;;;;;;;;;4947265;28;20066;-68
2022/05/14 14:38:43;;;;;;;19.73;4.63;;;;;;;;;;4945755;28;20043;-69
2022/05/14 14:41:08;;;;;;;14.95;4.78;;;;;;;;;;4947425;28;20082;-69
2022/05/14 14:43:36;;;;;;;17.35;4.70;;;;;;;;;;4941650;29;20586;-69
2022/05/14 14:46:02;;;;;;;16.98;4.85;;;;;;;;;;4946548;29;20019;-69
2022/05/14 14:48:31;;;;;;;13.48;5.30;;;;;;;;;;4947449;28;20023;-69
2022/05/14 14:50:56;;;;;;;15.40;4.50;;;;;;;;;;4944739;28;20027;-69
2022/05/14 14:53:21;;;;;;;11.85;3.75;;;;;;;;;;4945292;29;20051;-69
2022/05/14 14:55:47;;;;;;;13.98;4.18;;;;;;;;;;4947918;28;20901;-70
2022/05/14 14:58:13;;;;;;;15.48;6.15;;;;;;;;;;4944490;28;20580;-68